Airfield :
LOGIN :

Register | Disclaimer

   EN    FR    IT 

 










Legend :    VFR   Marginal VFR   IFR   Intensive IFR   Very Intensive IFR
Visi :
Ceiling :
>= 8 km
>= 3000ft
5 to 8 km
1000 to 3000 ft
1500m to 5 km
500 to 1000 ft
800 to 1500m
200 to 500 ft
< 800m
< 200 ft
Symbols :   Thunderstorms  Fog  Heavy snow  Heavy precipitations  Wind > 20 kt
SIGMETs :     Misc.  Thunderstorms  Icing  Turbulence  Mountain Waves  Volcanic Ashes







- Airport Elevation : 479 ft
- IATA code : DOL
- Download approach charts


LFRG - Deauville

CURRENT METAR :
  • 230700Z AUTO 26005KT CAVOK 07/06 Q1034 NOSIG

EXPIRED METARs :
  • 230630Z AUTO 25004KT CAVOK 06/06 Q1034 NOSIG
  • 230600Z AUTO 23004KT CAVOK 06/05 Q1034 TEMPO 1500 BR
  • 230530Z AUTO 21004KT 170V230 CAVOK 05/05 Q1034 TEMPO 1500 BR
  • 230500Z AUTO 24003KT CAVOK 06/06 Q1035
  • 230430Z AUTO 29003KT CAVOK 05/05 Q1035
  • 230400Z AUTO 24002KT CAVOK 05/05 Q1035

TAF TAF LFRG
Valid from the 23 at 06:00 until the 23 at 15:00 UTC


230500Z 2306/2315 VRB03KT CAVOK
PROB30
TEMPO 2306/2307 1500 BR
BECMG 2308/2310 27010KT
TEMPO 2313/2315 30015G25KT
ATIS : +33 2 31 65 65 36
No reported NOTAMs for that airfield.



MET'MAP, your aeronautical weather chart ! - Copyright ORBIFLY December 2007 - Disclaimer

ORBIFLY MET'MAP TEAM :

Programming & Development : Alexandra Zaïnal
Concept & Development : Baudouin d'Aumeries
Co-Development & Prog : Marc-Olivier Méhu
Technical & hardware support : Manuel Goepfert

Contact : metmap@orbifly.com




SOURCES & CREDITS :

   NOAA